createdAt,value
2022-12-01T00:00:13.520Z,3.76
2022-12-01T00:03:16.349Z,3.64
2022-12-01T00:06:20.993Z,3.54
2022-12-01T00:09:41.872Z,3.57
2022-12-01T00:12:44.346Z,3.45
2022-12-01T00:15:47.283Z,3.30
2022-12-01T00:18:51.280Z,3.19
2022-12-01T00:21:53.937Z,3.05
2022-12-01T00:24:56.262Z,2.86
2022-12-01T00:27:58.966Z,2.75
2022-12-01T00:31:01.346Z,2.81
2022-12-01T00:34:06.888Z,2.87
2022-12-01T00:37:13.271Z,2.81
2022-12-01T00:40:15.653Z,2.71
2022-12-01T00:43:17.995Z,2.86
2022-12-01T00:46:20.560Z,3.00
2022-12-01T00:49:22.849Z,3.05
2022-12-01T00:52:25.151Z,3.09
2022-12-01T00:55:27.535Z,3.16
2022-12-01T00:58:29.857Z,3.27
2022-12-01T01:01:32.204Z,3.29
2022-12-01T01:04:36.443Z,3.46
2022-12-01T01:07:40.348Z,3.40
2022-12-01T01:10:44.799Z,3.29
2022-12-01T01:13:47.234Z,3.25
2022-12-01T01:16:49.938Z,3.13
2022-12-01T01:19:55.218Z,3.02
2022-12-01T01:22:57.664Z,2.89
2022-12-01T01:26:12.402Z,2.96
2022-12-01T01:29:14.657Z,2.95
2022-12-01T01:32:16.921Z,2.81
2022-12-01T01:35:19.118Z,2.91
2022-12-01T01:38:21.376Z,3.02
2022-12-01T01:41:24.461Z,3.09
2022-12-01T01:44:50.286Z,3.08
2022-12-01T01:47:55.616Z,2.95
2022-12-01T01:50:58.042Z,2.79
2022-12-01T01:54:04.541Z,2.61
2022-12-01T01:57:09.421Z,2.64
2022-12-01T02:00:15.073Z,2.57
2022-12-01T02:03:20.545Z,2.50
2022-12-01T02:06:24.388Z,2.43
2022-12-01T02:09:26.677Z,2.34
2022-12-01T02:12:57.744Z,2.13
2022-12-01T02:16:24.609Z,1.91
2022-12-01T02:19:45.160Z,1.80
2022-12-01T02:23:05.398Z,1.73
2022-12-01T02:26:26.831Z,1.59
2022-12-01T02:29:57.097Z,1.44
2022-12-01T02:33:15.041Z,1.34
2022-12-01T02:36:22.213Z,1.33
2022-12-01T02:39:35.808Z,1.34
2022-12-01T02:42:50.282Z,1.28
2022-12-01T02:46:17.378Z,1.22
2022-12-01T02:49:26.355Z,1.15
2022-12-01T02:52:29.174Z,1.01
2022-12-01T02:55:33.747Z,0.85
2022-12-01T02:58:36.084Z,0.80
2022-12-01T03:02:09.435Z,0.77
2022-12-01T03:05:30.154Z,0.71
2022-12-01T03:08:46.107Z,0.65
2022-12-01T03:12:26.084Z,0.53
2022-12-01T03:16:04.732Z,0.40
2022-12-01T03:19:32.518Z,0.38
2022-12-01T03:23:00.161Z,0.31
2022-12-01T03:26:07.101Z,0.24
2022-12-01T03:29:15.108Z,0.21
2022-12-01T03:32:24.841Z,0.18
2022-12-01T03:35:38.080Z,0.16
2022-12-01T03:38:45.600Z,0.12
2022-12-01T03:41:54.995Z,0.08
2022-12-01T03:45:04.059Z,0.02
2022-12-01T03:48:07.399Z,-0.04
2022-12-01T03:51:38.702Z,0.00
2022-12-01T03:55:04.648Z,0.05
2022-12-01T03:58:12.529Z,0.21
2022-12-01T04:01:15.083Z,0.26
2022-12-01T04:04:17.677Z,0.24
2022-12-01T04:07:21.637Z,0.32
2022-12-01T04:10:24.287Z,0.43
2022-12-01T04:13:26.887Z,0.54
2022-12-01T04:16:29.255Z,0.52
2022-12-01T04:19:32.124Z,0.55
2022-12-01T04:22:34.495Z,0.59
2022-12-01T04:25:36.727Z,0.54
2022-12-01T04:28:39.016Z,0.48
2022-12-01T04:31:41.734Z,0.43
2022-12-01T04:34:44.315Z,0.44
2022-12-01T04:37:46.588Z,0.31
2022-12-01T04:40:48.823Z,0.23
2022-12-01T04:43:54.385Z,0.16
2022-12-01T04:46:56.874Z,0.05
2022-12-01T04:49:59.190Z,0.00
2022-12-01T04:53:01.464Z,-0.05
2022-12-01T04:56:04.418Z,-0.08
2022-12-01T04:59:07.582Z,-0.12
2022-12-01T05:02:10.078Z,-0.04
2022-12-01T05:05:14.143Z,-0.05
2022-12-01T05:08:16.510Z,-0.11
2022-12-01T05:11:19.137Z,-0.15
2022-12-01T05:14:21.364Z,-0.11
2022-12-01T05:17:23.750Z,-0.05
2022-12-01T05:20:44.560Z,0.03
2022-12-01T05:23:46.870Z,0.12
2022-12-01T05:26:49.249Z,0.10
2022-12-01T05:29:51.849Z,-0.04
2022-12-01T05:32:54.848Z,-0.20
2022-12-01T05:35:57.405Z,-0.31
2022-12-01T05:38:59.805Z,-0.39
2022-12-01T05:42:02.310Z,-0.33
2022-12-01T05:45:04.988Z,-0.43
2022-12-01T05:48:07.242Z,-0.50
2022-12-01T05:51:11.160Z,-0.45
2022-12-01T05:54:13.454Z,-0.48
2022-12-01T05:57:15.823Z,-0.44
2022-12-01T06:00:18.623Z,-0.49
2022-12-01T06:03:20.875Z,-0.51
2022-12-01T06:06:23.179Z,-0.49
2022-12-01T06:09:25.453Z,-0.42
2022-12-01T06:12:27.937Z,-0.39
2022-12-01T06:15:30.240Z,-0.41
2022-12-01T06:18:34.905Z,-0.33
2022-12-01T06:21:37.151Z,-0.31
2022-12-01T06:24:39.449Z,-0.30
2022-12-01T06:27:41.689Z,-0.24
2022-12-01T06:30:44.403Z,-0.11
2022-12-01T06:33:46.824Z,-0.10
2022-12-01T06:36:49.559Z,-0.11
2022-12-01T06:39:52.252Z,-0.07
2022-12-01T06:42:54.761Z,0.04
2022-12-01T06:46:01.655Z,0.12
2022-12-01T06:49:04.987Z,0.19
2022-12-01T06:52:07.378Z,0.26
2022-12-01T06:55:09.909Z,0.36
2022-12-01T06:58:12.541Z,0.46
2022-12-01T07:01:17.210Z,0.62
2022-12-01T07:04:19.736Z,0.84
2022-12-01T07:07:22.136Z,0.93
2022-12-01T07:10:24.504Z,1.10
2022-12-01T07:13:32.777Z,1.41
2022-12-01T07:16:35.842Z,1.98
2022-12-01T07:19:38.195Z,2.83
2022-12-01T07:22:40.544Z,3.79
2022-12-01T07:25:42.924Z,3.97
2022-12-01T07:28:45.777Z,3.78
2022-12-01T07:31:48.188Z,3.74
2022-12-01T07:34:50.538Z,3.67
2022-12-01T07:37:56.869Z,3.73
2022-12-01T07:41:14.263Z,4.27
2022-12-01T07:44:16.703Z,4.66
2022-12-01T07:47:19.346Z,4.91
2022-12-01T07:50:21.647Z,5.30
2022-12-01T07:53:24.133Z,5.87
2022-12-01T07:56:26.431Z,6.34
2022-12-01T07:59:28.747Z,6.75
2022-12-01T08:02:31.239Z,6.81
2022-12-01T08:05:33.804Z,7.35
2022-12-01T08:08:37.898Z,7.42
2022-12-01T08:11:40.328Z,7.51
2022-12-01T08:14:42.943Z,7.70
2022-12-01T08:17:45.182Z,8.02
2022-12-01T08:20:47.598Z,8.34
2022-12-01T08:23:55.706Z,8.43
2022-12-01T08:26:58.002Z,8.56
2022-12-01T08:30:00.368Z,8.08
2022-12-01T08:33:03.010Z,7.88
2022-12-01T08:36:05.925Z,8.04
2022-12-01T08:39:08.913Z,7.91
2022-12-01T08:42:11.239Z,8.39
2022-12-01T08:45:13.738Z,9.00
2022-12-01T08:48:15.991Z,9.30
2022-12-01T08:51:19.325Z,9.75
2022-12-01T08:54:22.085Z,10.14
2022-12-01T08:57:24.429Z,10.79
2022-12-01T09:00:26.755Z,11.04
2022-12-01T09:03:29.155Z,11.22
2022-12-01T09:06:33.478Z,11.41
2022-12-01T09:09:36.259Z,11.60
2022-12-01T09:12:38.719Z,11.41
2022-12-01T09:15:41.276Z,11.39
2022-12-01T09:18:45.422Z,12.02
2022-12-01T09:21:48.276Z,11.32
2022-12-01T09:24:50.570Z,10.98
2022-12-01T09:27:52.903Z,11.30
2022-12-01T09:30:55.219Z,11.54
2022-12-01T09:34:00.212Z,11.61
2022-12-01T09:37:02.593Z,11.91
2022-12-01T09:40:05.532Z,12.40
2022-12-01T09:43:18.816Z,12.64
2022-12-01T09:46:25.912Z,12.39
2022-12-01T09:49:50.110Z,12.30
2022-12-01T09:53:00.335Z,12.08
2022-12-01T09:56:08.541Z,12.05
2022-12-01T09:59:19.724Z,12.18
2022-12-01T10:02:28.047Z,12.19
2022-12-01T10:06:03.015Z,11.60
2022-12-01T10:09:36.531Z,11.55
2022-12-01T10:12:43.209Z,11.76
2022-12-01T10:15:48.185Z,12.04
2022-12-01T10:18:56.388Z,11.92
2022-12-01T10:22:13.817Z,11.60
2022-12-01T10:25:27.796Z,11.40
2022-12-01T10:29:07.573Z,12.04
2022-12-01T10:32:40.550Z,12.09
2022-12-01T10:35:43.028Z,12.65
2022-12-01T10:38:45.740Z,12.75
2022-12-01T10:41:49.957Z,12.39
2022-12-01T10:44:54.896Z,11.98
2022-12-01T10:48:17.786Z,12.51
2022-12-01T10:51:20.776Z,13.23
2022-12-01T10:54:31.708Z,13.61
2022-12-01T10:57:34.231Z,13.97
2022-12-01T11:00:59.237Z,14.33
2022-12-01T11:04:45.530Z,14.55
2022-12-01T11:07:49.574Z,14.43
2022-12-01T11:10:52.311Z,14.01
2022-12-01T11:13:56.886Z,13.66
2022-12-01T11:17:34.493Z,13.29
2022-12-01T11:20:40.057Z,12.73
2022-12-01T11:23:50.979Z,11.96
2022-12-01T11:26:53.498Z,11.28
2022-12-01T11:30:00.184Z,10.63
2022-12-01T11:33:04.291Z,9.98
2022-12-01T11:36:11.820Z,9.32
2022-12-01T11:39:42.497Z,8.94
2022-12-01T11:42:52.149Z,8.59
2022-12-01T11:45:57.215Z,8.34
2022-12-01T11:49:01.044Z,8.21
2022-12-01T11:52:27.835Z,8.05
2022-12-01T11:55:31.745Z,7.98
2022-12-01T11:58:34.171Z,8.07
2022-12-01T12:01:53.149Z,8.18
2022-12-01T12:04:58.382Z,8.22
2022-12-01T12:08:09.135Z,8.15
2022-12-01T12:11:14.294Z,7.94
2022-12-01T12:14:47.614Z,7.78
2022-12-01T12:18:08.632Z,7.71
2022-12-01T12:21:35.563Z,7.66
2022-12-01T12:24:56.539Z,7.61
2022-12-01T12:28:17.031Z,7.52
2022-12-01T12:31:52.770Z,7.41
2022-12-01T12:34:58.201Z,7.38
2022-12-01T12:38:38.373Z,7.46
2022-12-01T12:41:46.610Z,7.45
2022-12-01T12:44:55.715Z,7.43
2022-12-01T12:48:09.751Z,7.41
2022-12-01T12:51:22.424Z,7.51
2022-12-01T12:54:34.768Z,7.48
2022-12-01T12:57:55.371Z,7.48
2022-12-01T13:01:17.201Z,7.41
2022-12-01T13:04:25.239Z,7.39
2022-12-01T13:07:46.175Z,7.42
2022-12-01T13:11:03.291Z,7.38
2022-12-01T13:14:15.613Z,7.38
2022-12-01T13:17:36.402Z,7.30
2022-12-01T13:20:39.037Z,7.28
2022-12-01T13:23:41.820Z,7.24
2022-12-01T13:26:47.347Z,7.16
2022-12-01T13:29:53.120Z,7.18
2022-12-01T13:33:05.424Z,7.18
2022-12-01T13:39:37.012Z,7.15
2022-12-01T13:42:40.657Z,7.12
2022-12-01T13:45:43.499Z,7.05
2022-12-01T13:48:45.891Z,6.97
2022-12-01T13:52:22.286Z,6.91
2022-12-01T13:55:28.248Z,6.76
2022-12-01T13:58:33.297Z,6.69
2022-12-01T14:01:43.774Z,6.56
2022-12-01T14:04:46.908Z,6.41
2022-12-01T14:07:55.639Z,6.39
2022-12-01T14:11:05.973Z,6.31
2022-12-01T14:14:24.374Z,6.24
2022-12-01T14:17:34.954Z,6.13
2022-12-01T14:20:46.628Z,6.00
2022-12-01T14:24:02.746Z,5.88
2022-12-01T14:27:06.307Z,5.78
2022-12-01T14:30:40.001Z,5.72
2022-12-01T14:33:42.194Z,5.73
2022-12-01T14:36:49.067Z,5.72
2022-12-01T14:39:58.644Z,5.64
2022-12-01T14:43:19.867Z,5.61
2022-12-01T14:46:26.297Z,5.48
2022-12-01T14:49:39.646Z,5.35
2022-12-01T14:52:45.175Z,5.26
2022-12-01T14:56:14.518Z,5.15
2022-12-01T14:59:23.026Z,5.04
2022-12-01T15:02:25.446Z,4.94
2022-12-01T15:05:30.335Z,4.90
2022-12-01T15:08:41.959Z,4.82
2022-12-01T15:12:09.194Z,4.80
2022-12-01T15:15:23.762Z,4.72
2022-12-01T15:18:31.003Z,4.79
2022-12-01T15:21:33.456Z,4.86
2022-12-01T15:24:36.067Z,4.91
2022-12-01T15:27:38.874Z,5.02
2022-12-01T15:30:42.984Z,5.17
2022-12-01T15:33:51.205Z,5.34
2022-12-01T15:36:54.307Z,5.57
2022-12-01T15:43:35.180Z,5.60
2022-12-01T15:46:37.474Z,5.54
2022-12-01T15:49:49.183Z,5.52
2022-12-01T15:52:51.599Z,5.45
2022-12-01T15:55:59.007Z,5.41
2022-12-01T15:59:10.388Z,5.38
2022-12-01T16:02:15.593Z,5.43
2022-12-01T16:05:22.302Z,5.35
2022-12-01T16:08:27.918Z,5.27
2022-12-01T16:11:30.759Z,5.27
2022-12-01T16:14:34.301Z,5.24
2022-12-01T16:17:47.078Z,5.17
2022-12-01T16:20:50.280Z,5.15
2022-12-01T16:24:04.722Z,5.09
2022-12-01T16:27:18.269Z,4.91
2022-12-01T16:30:23.605Z,4.78
2022-12-01T16:33:28.196Z,4.69
2022-12-01T16:36:30.473Z,4.65
2022-12-01T16:39:33.039Z,4.53
2022-12-01T16:42:35.307Z,4.47
2022-12-01T16:45:37.585Z,4.42
2022-12-01T16:48:40.039Z,4.38
2022-12-01T16:51:55.573Z,4.33
2022-12-01T16:54:58.648Z,4.25
2022-12-01T16:58:01.128Z,4.16
2022-12-01T17:01:05.142Z,4.01
2022-12-01T17:04:07.916Z,3.88
2022-12-01T17:07:10.319Z,3.80
2022-12-01T17:10:12.938Z,3.75
2022-12-01T17:13:15.870Z,3.71
2022-12-01T17:16:18.925Z,3.65
2022-12-01T17:19:21.316Z,3.58
2022-12-01T17:22:24.625Z,3.47
2022-12-01T17:25:27.335Z,3.45
2022-12-01T17:28:29.570Z,3.44
2022-12-01T17:31:31.968Z,3.39
2022-12-01T17:34:34.349Z,3.33
2022-12-01T17:37:39.163Z,3.33
2022-12-01T17:40:42.160Z,3.27
2022-12-01T17:43:44.572Z,3.24
2022-12-01T17:46:46.835Z,3.24
2022-12-01T17:49:49.158Z,3.23
2022-12-01T17:52:51.702Z,3.22
2022-12-01T17:55:54.057Z,3.21
2022-12-01T17:58:56.540Z,3.10
2022-12-01T18:01:59.028Z,3.03
2022-12-01T18:05:01.410Z,2.98
2022-12-01T18:08:04.063Z,2.92
2022-12-01T18:11:12.214Z,2.78
2022-12-01T18:14:17.915Z,2.72
2022-12-01T18:17:20.313Z,2.66
2022-12-01T18:20:22.566Z,2.61
2022-12-01T18:23:25.206Z,2.60
2022-12-01T18:26:29.322Z,2.59
2022-12-01T18:29:31.776Z,2.64
2022-12-01T18:32:34.085Z,2.70
2022-12-01T18:35:41.666Z,2.67
2022-12-01T18:38:44.453Z,2.69
2022-12-01T18:41:47.057Z,2.66
2022-12-01T18:44:49.667Z,2.57
2022-12-01T18:47:52.437Z,2.56
2022-12-01T18:50:59.299Z,2.56
2022-12-01T18:54:04.499Z,2.60
2022-12-01T18:57:06.907Z,2.63
2022-12-01T19:00:09.996Z,2.62
2022-12-01T19:03:12.397Z,2.60
2022-12-01T19:06:14.789Z,2.57
2022-12-01T19:09:17.508Z,2.48
2022-12-01T19:12:19.900Z,2.40
2022-12-01T19:15:22.763Z,2.41
2022-12-01T19:18:25.783Z,2.42
2022-12-01T19:21:28.348Z,2.40
2022-12-01T19:24:30.619Z,2.43
2022-12-01T19:27:32.868Z,2.47
2022-12-01T19:30:35.733Z,2.42
2022-12-01T19:33:38.460Z,2.39
2022-12-01T19:36:40.735Z,2.33
2022-12-01T19:39:43.114Z,2.35
2022-12-01T19:42:46.061Z,2.28
2022-12-01T19:45:48.423Z,2.28
2022-12-01T19:48:56.105Z,2.23
2022-12-01T19:51:58.350Z,2.15
2022-12-01T19:55:00.581Z,2.15
2022-12-01T19:58:04.367Z,2.13
2022-12-01T20:01:09.445Z,2.07
2022-12-01T20:04:11.788Z,1.94
2022-12-01T20:07:14.108Z,1.82
2022-12-01T20:10:20.122Z,1.84
2022-12-01T20:13:22.580Z,1.83
2022-12-01T20:16:26.652Z,1.82
2022-12-01T20:19:29.041Z,1.76
2022-12-01T20:22:35.522Z,1.73
2022-12-01T20:25:38.357Z,1.70
2022-12-01T20:28:41.348Z,1.55
2022-12-01T20:31:44.966Z,1.44
2022-12-01T20:34:47.794Z,1.40
2022-12-01T20:37:50.550Z,1.30
2022-12-01T20:40:52.829Z,1.20
2022-12-01T20:43:55.160Z,1.13
2022-12-01T20:46:57.857Z,1.09
2022-12-01T20:50:00.200Z,1.04
2022-12-01T20:53:02.521Z,1.01
2022-12-01T20:56:06.789Z,1.07
2022-12-01T20:59:09.142Z,0.95
2022-12-01T21:02:11.496Z,0.81
2022-12-01T21:05:13.912Z,0.88
2022-12-01T21:08:16.978Z,0.93
2022-12-01T21:11:43.671Z,0.89
2022-12-01T21:14:52.645Z,0.79
2022-12-01T21:18:05.430Z,0.68
2022-12-01T21:21:35.270Z,0.65
2022-12-01T21:24:43.341Z,0.53
2022-12-01T21:27:47.505Z,0.47
2022-12-01T21:30:52.794Z,0.45
2022-12-01T21:33:55.788Z,0.43
2022-12-01T21:37:02.478Z,0.48
2022-12-01T21:40:15.811Z,0.48
2022-12-01T21:43:23.960Z,0.47
2022-12-01T21:46:27.674Z,0.35
2022-12-01T21:49:37.925Z,0.42
2022-12-01T21:52:42.733Z,0.47
2022-12-01T21:55:47.670Z,0.54
2022-12-01T21:58:50.391Z,0.55
2022-12-01T22:01:55.103Z,0.53
2022-12-01T22:04:59.390Z,0.50
2022-12-01T22:08:15.187Z,0.44
2022-12-01T22:11:24.493Z,0.38
2022-12-01T22:14:33.757Z,0.36
2022-12-01T22:17:36.878Z,0.31
2022-12-01T22:20:39.130Z,0.38
2022-12-01T22:23:41.438Z,0.40
2022-12-01T22:26:47.896Z,0.33
2022-12-01T22:29:52.902Z,0.27
2022-12-01T22:33:00.026Z,0.31
2022-12-01T22:36:02.326Z,0.34
2022-12-01T22:39:24.538Z,0.36
2022-12-01T22:42:32.164Z,0.42
2022-12-01T22:45:34.502Z,0.45
2022-12-01T22:48:42.165Z,0.50
2022-12-01T22:51:48.644Z,0.55
2022-12-01T22:54:51.369Z,0.65
2022-12-01T22:57:54.726Z,0.72
2022-12-01T23:01:02.458Z,0.74
2022-12-01T23:04:24.295Z,0.77
2022-12-01T23:07:35.191Z,0.87
2022-12-01T23:10:39.814Z,0.92
2022-12-01T23:13:42.096Z,1.05
2022-12-01T23:16:44.363Z,1.03
2022-12-01T23:19:48.405Z,1.07
2022-12-01T23:22:56.622Z,1.10
2022-12-01T23:26:01.818Z,1.12
2022-12-01T23:29:04.176Z,1.14
2022-12-01T23:32:06.481Z,1.14
2022-12-01T23:35:16.903Z,1.18
2022-12-01T23:38:22.808Z,1.20
2022-12-01T23:41:25.824Z,1.21
2022-12-01T23:44:36.882Z,1.23
2022-12-01T23:47:39.130Z,1.19
2022-12-01T23:50:41.589Z,1.27
2022-12-01T23:53:44.558Z,1.30
2022-12-01T23:56:55.986Z,1.34
